Flight Track Log - Related Links

Times and Time Zones

All times are in EDT time to prevent confusion due to time zone crossing. See the CES5185 flight status page for this flight to view local times or setup timezone preferences in your user account.

Time Position Orientation Groundspeed Altitude Reporting Facility
EDT Latitude Longitude Course Direction KTS MPH feet Rate Location/Type
Wed 11:17:00 AM 39.1939 118.2484 307° West  Level Estimated
Wed 11:18:00 AM 39.2438 118.1569 305° West  Level Estimated
Wed 11:19:00 AM 39.2937 118.0652 305° West  Level Estimated
Wed 11:20:00 AM 39.3436 117.9735 305° West  Level Estimated
Wed 11:21:00 AM 39.3933 117.8815 305° West  Level Estimated
Wed 11:22:00 AM 39.4430 117.7895 305° West  Level Estimated
Wed 11:23:00 AM 39.4926 117.6973 305° West  Level Estimated
Wed 11:24:00 AM 39.5421 117.6050 305° West  Level Estimated
Wed 11:25:00 AM 39.5916 117.5125 305° West  Level Estimated
Wed 11:26:00 AM 39.6409 117.4200 305° West  Level Estimated
Wed 11:26:48 AM 39.3910 116.8280 305° West 303 349 10,600  Level FlightAware ADS-B
Wed 11:27:00 AM 39.6903 117.3272 305° West  Level Estimated
Wed 11:27:26 AM 39.4350 116.8430 15° North 303 349 10,600  Level FlightAware ADS-B
Wed 11:28:27 AM 39.5050 116.8680 15° North 303 349 10,600 -2,110 Level FlightAware ADS-B
Wed 11:30:28 AM 39.6690 116.9220 14° North 265 305 4,200 -2,936 Descending FlightAware ADS-B
Wed 11:30:48 AM 39.6900 116.9290 14° North 261 300 3,700 -1,636 Descending FlightAware ADS-B
Wed 11:31:23 AM 39.7320 116.9230 354° North 254 292 2,700 -1,440 Descending FlightAware ADS-B
Wed 11:31:38 AM 39.7410 116.9080 308° West 243 280 2,500 -273 Descending FlightAware ADS-B
Wed 11:32:29 AM 39.7370 116.8390 266° West 200 230 2,400 -74 Descending FlightAware ADS-B
Wed 11:32:59 AM 39.7330 116.8070 261° West 200 230 2,400  Level FlightAware ADS-B
Wed 11:35:00 AM 39.9064 116.6962 334° Northwest  Level Estimated
Wed 11:36:00 AM 39.9924 116.6410 334° Northwest  Level Estimated
Wed 11:37:00 AM 40.0783 116.5857 334° Northwest  Level Estimated
Wed 11:37:29 AM 39.8870 116.6260 334° Northwest 186 214 2,400  Level FlightAware ADS-B
Wed 11:38:00 AM 39.9130 116.6220 353° North 186 214 2,400  Level FlightAware ADS-B
Wed 11:38:13 AM 39.9260 116.6200 353° North 186 214 2,400  Level FlightAware ADS-B
Wed 11:38:59 AM 39.9600 116.6150 354° North 184 212 2,400 -494 Level FlightAware ADS-B
Wed 11:39:38 AM 39.9880 116.6110 354° North 184 212 1,700 -938 Descending FlightAware ADS-B
Wed 11:40:03 AM 40.0030 116.6080 351° North 139 160 1,400 -655 Descending FlightAware ADS-B
Wed 11:40:33 AM 40.0220 116.6050 353° North 142 163 1,100 -600 Descending FlightAware ADS-B
Wed 11:40:43 AM 40.0280 116.6040 353° North 144 166 1,000 -171 Descending FlightAware ADS-B
Wed 11:41:08 AM 40.0420 116.6030 357° North 144 166 1,000  Level FlightAware ADS-B
Wed 11:43:00 AM 40.0801 116.5846 340° North  Level Estimated
Wed 11:44:00 AM 40.0801 116.5846 288° West  Level Estimated
Wed 11:45:00 AM 40.0801 116.5846 288° West  Level Estimated
Wed 11:46:00 AM 40.0801 116.5846 288° West  Level Estimated

Login

Don't have an account? Register now (free) for customized features, flight alerts, and more!